sensor_id;sensor_type;location;lat;lon;timestamp;P1;durP1;ratioP1;P2;durP2;ratioP2
34695;SDS011;20918;51.138;17.370;2022-07-24T00:02:51;13.72;;;6.97;;
34695;SDS011;20918;51.138;17.370;2022-07-24T00:05:52;18.70;;;7.47;;
34695;SDS011;20918;51.138;17.370;2022-07-24T00:08:53;20.05;;;6.95;;
34695;SDS011;20918;51.138;17.370;2022-07-24T00:11:55;13.62;;;8.30;;
34695;SDS011;20918;51.138;17.370;2022-07-24T00:14:57;11.55;;;7.22;;
34695;SDS011;20918;51.138;17.370;2022-07-24T00:17:58;13.53;;;6.62;;
34695;SDS011;20918;51.138;17.370;2022-07-24T00:20:59;11.50;;;7.10;;
34695;SDS011;20918;51.138;17.370;2022-07-24T00:24:01;19.57;;;6.65;;
34695;SDS011;20918;51.138;17.370;2022-07-24T00:27:03;13.18;;;7.17;;
34695;SDS011;20918;51.138;17.370;2022-07-24T00:30:05;15.05;;;6.47;;
34695;SDS011;20918;51.138;17.370;2022-07-24T00:33:10;11.28;;;6.40;;
34695;SDS011;20918;51.138;17.370;2022-07-24T00:36:11;11.20;;;6.95;;
34695;SDS011;20918;51.138;17.370;2022-07-24T00:39:13;10.70;;;6.42;;
34695;SDS011;20918;51.138;17.370;2022-07-24T00:42:14;16.55;;;7.47;;
34695;SDS011;20918;51.138;17.370;2022-07-24T00:45:16;15.13;;;6.90;;
34695;SDS011;20918;51.138;17.370;2022-07-24T00:48:17;18.65;;;6.95;;
34695;SDS011;20918;51.138;17.370;2022-07-24T00:51:19;15.40;;;9.00;;
34695;SDS011;20918;51.138;17.370;2022-07-24T00:54:21;18.57;;;8.05;;
34695;SDS011;20918;51.138;17.370;2022-07-24T00:57:23;16.42;;;9.25;;
34695;SDS011;20918;51.138;17.370;2022-07-24T01:00:24;21.12;;;8.68;;
34695;SDS011;20918;51.138;17.370;2022-07-24T01:03:25;18.52;;;8.78;;
34695;SDS011;20918;51.138;17.370;2022-07-24T01:06:27;16.25;;;8.50;;
34695;SDS011;20918;51.138;17.370;2022-07-24T01:09:28;13.25;;;7.00;;
34695;SDS011;20918;51.138;17.370;2022-07-24T01:12:30;24.77;;;9.35;;
34695;SDS011;20918;51.138;17.370;2022-07-24T01:15:34;23.00;;;9.13;;
34695;SDS011;20918;51.138;17.370;2022-07-24T01:18:35;23.67;;;9.98;;
34695;SDS011;20918;51.138;17.370;2022-07-24T01:21:37;23.47;;;9.35;;
34695;SDS011;20918;51.138;17.370;2022-07-24T01:24:39;18.98;;;8.63;;
34695;SDS011;20918;51.138;17.370;2022-07-24T01:27:40;23.67;;;9.40;;
34695;SDS011;20918;51.138;17.370;2022-07-24T01:30:42;21.65;;;8.43;;
34695;SDS011;20918;51.138;17.370;2022-07-24T01:33:43;24.65;;;8.80;;
34695;SDS011;20918;51.138;17.370;2022-07-24T01:36:45;17.10;;;7.65;;
34695;SDS011;20918;51.138;17.370;2022-07-24T01:39:46;33.42;;;10.05;;
34695;SDS011;20918;51.138;17.370;2022-07-24T01:42:48;28.95;;;9.53;;
34695;SDS011;20918;51.138;17.370;2022-07-24T01:45:49;17.67;;;7.30;;
34695;SDS011;20918;51.138;17.370;2022-07-24T01:48:51;23.42;;;8.93;;
34695;SDS011;20918;51.138;17.370;2022-07-24T01:51:52;15.13;;;7.37;;
34695;SDS011;20918;51.138;17.370;2022-07-24T01:54:53;18.60;;;7.85;;
34695;SDS011;20918;51.138;17.370;2022-07-24T01:57:55;22.77;;;7.72;;
34695;SDS011;20918;51.138;17.370;2022-07-24T02:00:57;20.55;;;8.48;;
34695;SDS011;20918;51.138;17.370;2022-07-24T02:03:59;16.23;;;7.53;;
34695;SDS011;20918;51.138;17.370;2022-07-24T02:07:00;20.43;;;7.75;;
34695;SDS011;20918;51.138;17.370;2022-07-24T02:10:02;21.73;;;6.90;;
34695;SDS011;20918;51.138;17.370;2022-07-24T02:13:04;18.10;;;7.17;;
34695;SDS011;20918;51.138;17.370;2022-07-24T02:16:06;14.70;;;6.95;;
34695;SDS011;20918;51.138;17.370;2022-07-24T02:19:08;14.63;;;7.28;;
34695;SDS011;20918;51.138;17.370;2022-07-24T02:22:10;14.05;;;6.50;;
34695;SDS011;20918;51.138;17.370;2022-07-24T02:25:11;12.85;;;6.12;;
34695;SDS011;20918;51.138;17.370;2022-07-24T02:28:14;14.47;;;6.67;;
34695;SDS011;20918;51.138;17.370;2022-07-24T02:31:16;15.03;;;6.40;;
34695;SDS011;20918;51.138;17.370;2022-07-24T02:34:17;12.78;;;5.17;;
34695;SDS011;20918;51.138;17.370;2022-07-24T02:37:19;13.30;;;6.50;;
34695;SDS011;20918;51.138;17.370;2022-07-24T02:40:20;21.20;;;5.72;;
34695;SDS011;20918;51.138;17.370;2022-07-24T02:43:21;16.15;;;6.92;;
34695;SDS011;20918;51.138;17.370;2022-07-24T02:46:22;13.70;;;6.03;;
34695;SDS011;20918;51.138;17.370;2022-07-24T02:49:24;18.45;;;6.65;;
34695;SDS011;20918;51.138;17.370;2022-07-24T02:52:25;11.10;;;6.00;;
34695;SDS011;20918;51.138;17.370;2022-07-24T02:55:26;11.33;;;6.08;;
34695;SDS011;20918;51.138;17.370;2022-07-24T02:58:28;17.70;;;6.12;;
34695;SDS011;20918;51.138;17.370;2022-07-24T03:01:30;16.57;;;6.30;;
34695;SDS011;20918;51.138;17.370;2022-07-24T03:04:31;15.35;;;6.62;;
34695;SDS011;20918;51.138;17.370;2022-07-24T03:07:34;14.28;;;5.78;;
34695;SDS011;20918;51.138;17.370;2022-07-24T03:10:36;13.68;;;6.85;;
34695;SDS011;20918;51.138;17.370;2022-07-24T03:13:38;11.20;;;5.65;;
34695;SDS011;20918;51.138;17.370;2022-07-24T03:16:39;13.30;;;6.83;;
34695;SDS011;20918;51.138;17.370;2022-07-24T03:19:40;18.65;;;7.00;;
34695;SDS011;20918;51.138;17.370;2022-07-24T03:22:43;11.33;;;7.97;;
34695;SDS011;20918;51.138;17.370;2022-07-24T03:25:47;15.32;;;6.78;;
34695;SDS011;20918;51.138;17.370;2022-07-24T03:28:49;18.90;;;6.80;;
34695;SDS011;20918;51.138;17.370;2022-07-24T03:31:50;22.05;;;6.67;;
34695;SDS011;20918;51.138;17.370;2022-07-24T03:34:51;18.55;;;6.50;;
34695;SDS011;20918;51.138;17.370;2022-07-24T03:37:52;13.85;;;6.53;;
34695;SDS011;20918;51.138;17.370;2022-07-24T03:40:54;11.70;;;5.83;;
34695;SDS011;20918;51.138;17.370;2022-07-24T03:43:55;6.55;;;5.70;;
34695;SDS011;20918;51.138;17.370;2022-07-24T03:46:56;9.78;;;5.47;;
34695;SDS011;20918;51.138;17.370;2022-07-24T03:49:57;10.90;;;5.72;;
34695;SDS011;20918;51.138;17.370;2022-07-24T03:52:59;10.78;;;5.78;;
34695;SDS011;20918;51.138;17.370;2022-07-24T03:56:03;8.53;;;7.08;;
34695;SDS011;20918;51.138;17.370;2022-07-24T03:59:08;12.28;;;8.43;;
34695;SDS011;20918;51.138;17.370;2022-07-24T04:02:10;10.90;;;6.90;;
34695;SDS011;20918;51.138;17.370;2022-07-24T04:05:11;11.68;;;8.08;;
34695;SDS011;20918;51.138;17.370;2022-07-24T04:08:13;10.88;;;9.20;;
34695;SDS011;20918;51.138;17.370;2022-07-24T04:11:15;12.35;;;9.40;;
34695;SDS011;20918;51.138;17.370;2022-07-24T04:14:16;14.28;;;10.45;;
34695;SDS011;20918;51.138;17.370;2022-07-24T04:17:17;11.65;;;10.50;;
34695;SDS011;20918;51.138;17.370;2022-07-24T04:20:18;15.88;;;11.88;;
34695;SDS011;20918;51.138;17.370;2022-07-24T04:23:20;17.70;;;11.90;;
34695;SDS011;20918;51.138;17.370;2022-07-24T04:26:21;19.12;;;12.30;;
34695;SDS011;20918;51.138;17.370;2022-07-24T04:29:22;14.70;;;12.85;;
34695;SDS011;20918;51.138;17.370;2022-07-24T04:32:24;17.35;;;11.90;;
34695;SDS011;20918;51.138;17.370;2022-07-24T04:35:26;16.10;;;11.60;;
34695;SDS011;20918;51.138;17.370;2022-07-24T04:38:27;15.40;;;12.05;;
34695;SDS011;20918;51.138;17.370;2022-07-24T04:41:28;13.50;;;11.12;;
34695;SDS011;20918;51.138;17.370;2022-07-24T04:44:30;15.85;;;12.13;;
34695;SDS011;20918;51.138;17.370;2022-07-24T04:47:31;14.98;;;10.35;;
34695;SDS011;20918;51.138;17.370;2022-07-24T04:50:32;17.07;;;10.53;;
34695;SDS011;20918;51.138;17.370;2022-07-24T04:53:34;14.05;;;10.80;;
34695;SDS011;20918;51.138;17.370;2022-07-24T04:56:36;12.25;;;10.40;;
34695;SDS011;20918;51.138;17.370;2022-07-24T04:59:37;14.20;;;10.43;;
34695;SDS011;20918;51.138;17.370;2022-07-24T05:02:38;13.13;;;9.68;;
34695;SDS011;20918;51.138;17.370;2022-07-24T05:05:40;12.13;;;10.40;;
34695;SDS011;20918;51.138;17.370;2022-07-24T05:08:42;13.05;;;9.75;;
34695;SDS011;20918;51.138;17.370;2022-07-24T05:11:43;16.57;;;9.53;;
34695;SDS011;20918;51.138;17.370;2022-07-24T05:14:44;12.07;;;10.10;;
34695;SDS011;20918;51.138;17.370;2022-07-24T05:17:45;10.65;;;9.35;;
34695;SDS011;20918;51.138;17.370;2022-07-24T05:20:48;13.28;;;8.70;;
34695;SDS011;20918;51.138;17.370;2022-07-24T05:23:49;11.93;;;9.90;;
34695;SDS011;20918;51.138;17.370;2022-07-24T05:26:51;11.43;;;9.45;;
34695;SDS011;20918;51.138;17.370;2022-07-24T05:29:53;9.60;;;8.70;;
34695;SDS011;20918;51.138;17.370;2022-07-24T05:32:54;12.85;;;9.53;;
34695;SDS011;20918;51.138;17.370;2022-07-24T05:35:56;9.55;;;8.55;;
34695;SDS011;20918;51.138;17.370;2022-07-24T05:38:57;10.23;;;9.05;;
34695;SDS011;20918;51.138;17.370;2022-07-24T05:41:59;11.45;;;7.25;;
34695;SDS011;20918;51.138;17.370;2022-07-24T05:45:00;7.92;;;7.22;;
34695;SDS011;20918;51.138;17.370;2022-07-24T05:48:02;9.70;;;7.90;;
34695;SDS011;20918;51.138;17.370;2022-07-24T05:51:03;8.50;;;6.72;;
34695;SDS011;20918;51.138;17.370;2022-07-24T05:54:05;8.53;;;5.85;;
34695;SDS011;20918;51.138;17.370;2022-07-24T05:57:06;8.18;;;5.60;;
34695;SDS011;20918;51.138;17.370;2022-07-24T06:00:07;6.05;;;5.30;;
34695;SDS011;20918;51.138;17.370;2022-07-24T06:03:12;6.40;;;5.10;;
34695;SDS011;20918;51.138;17.370;2022-07-24T06:06:13;6.17;;;4.87;;
34695;SDS011;20918;51.138;17.370;2022-07-24T06:09:16;5.25;;;4.55;;
34695;SDS011;20918;51.138;17.370;2022-07-24T06:12:17;8.05;;;5.10;;
34695;SDS011;20918;51.138;17.370;2022-07-24T06:15:18;7.03;;;4.90;;
34695;SDS011;20918;51.138;17.370;2022-07-24T06:18:20;6.72;;;4.83;;
34695;SDS011;20918;51.138;17.370;2022-07-24T06:21:22;6.42;;;4.55;;
34695;SDS011;20918;51.138;17.370;2022-07-24T06:24:23;7.00;;;4.37;;
34695;SDS011;20918;51.138;17.370;2022-07-24T06:27:25;5.25;;;3.58;;
34695;SDS011;20918;51.138;17.370;2022-07-24T06:30:27;5.90;;;3.62;;
34695;SDS011;20918;51.138;17.370;2022-07-24T06:33:30;8.73;;;4.10;;
34695;SDS011;20918;51.138;17.370;2022-07-24T06:36:31;4.08;;;3.67;;
34695;SDS011;20918;51.138;17.370;2022-07-24T06:39:33;4.53;;;3.75;;
34695;SDS011;20918;51.138;17.370;2022-07-24T06:42:34;4.53;;;3.37;;
34695;SDS011;20918;51.138;17.370;2022-07-24T06:45:37;8.05;;;3.72;;
34695;SDS011;20918;51.138;17.370;2022-07-24T06:48:43;5.72;;;3.22;;
34695;SDS011;20918;51.138;17.370;2022-07-24T06:51:44;4.20;;;2.92;;
34695;SDS011;20918;51.138;17.370;2022-07-24T06:54:47;6.20;;;2.72;;
34695;SDS011;20918;51.138;17.370;2022-07-24T06:57:49;4.50;;;3.02;;
34695;SDS011;20918;51.138;17.370;2022-07-24T07:00:51;12.80;;;3.95;;
34695;SDS011;20918;51.138;17.370;2022-07-24T07:03:56;6.00;;;3.12;;
34695;SDS011;20918;51.138;17.370;2022-07-24T07:06:55;9.43;;;2.87;;
34695;SDS011;20918;51.138;17.370;2022-07-24T07:09:56;3.90;;;3.02;;
34695;SDS011;20918;51.138;17.370;2022-07-24T07:12:58;4.67;;;2.40;;
34695;SDS011;20918;51.138;17.370;2022-07-24T07:16:00;4.08;;;2.50;;
34695;SDS011;20918;51.138;17.370;2022-07-24T07:19:02;3.20;;;1.98;;
34695;SDS011;20918;51.138;17.370;2022-07-24T07:22:03;1.65;;;1.52;;
34695;SDS011;20918;51.138;17.370;2022-07-24T07:25:05;5.15;;;1.80;;
34695;SDS011;20918;51.138;17.370;2022-07-24T07:28:08;4.92;;;2.00;;
34695;SDS011;20918;51.138;17.370;2022-07-24T07:31:09;1.98;;;1.42;;
34695;SDS011;20918;51.138;17.370;2022-07-24T07:34:10;2.55;;;1.30;;
34695;SDS011;20918;51.138;17.370;2022-07-24T07:37:12;3.87;;;1.25;;
34695;SDS011;20918;51.138;17.370;2022-07-24T07:40:14;1.40;;;1.22;;
34695;SDS011;20918;51.138;17.370;2022-07-24T07:43:15;1.25;;;1.15;;
34695;SDS011;20918;51.138;17.370;2022-07-24T07:46:18;2.75;;;1.30;;
34695;SDS011;20918;51.138;17.370;2022-07-24T07:49:19;1.32;;;0.95;;
34695;SDS011;20918;51.138;17.370;2022-07-24T07:52:23;3.92;;;1.15;;
34695;SDS011;20918;51.138;17.370;2022-07-24T07:55:25;1.10;;;1.00;;
34695;SDS011;20918;51.138;17.370;2022-07-24T07:58:28;3.05;;;0.93;;
34695;SDS011;20918;51.138;17.370;2022-07-24T08:01:30;3.83;;;1.52;;
34695;SDS011;20918;51.138;17.370;2022-07-24T08:04:32;1.98;;;1.20;;
34695;SDS011;20918;51.138;17.370;2022-07-24T08:07:34;2.15;;;1.05;;
34695;SDS011;20918;51.138;17.370;2022-07-24T08:10:36;2.77;;;1.25;;
34695;SDS011;20918;51.138;17.370;2022-07-24T08:13:38;5.92;;;1.30;;
34695;SDS011;20918;51.138;17.370;2022-07-24T08:16:40;1.20;;;1.10;;
34695;SDS011;20918;51.138;17.370;2022-07-24T08:19:41;2.70;;;1.00;;
34695;SDS011;20918;51.138;17.370;2022-07-24T08:22:43;1.27;;;1.10;;
34695;SDS011;20918;51.138;17.370;2022-07-24T08:25:44;1.17;;;0.90;;
34695;SDS011;20918;51.138;17.370;2022-07-24T08:28:46;2.20;;;1.30;;
34695;SDS011;20918;51.138;17.370;2022-07-24T08:31:47;2.02;;;1.05;;
34695;SDS011;20918;51.138;17.370;2022-07-24T08:34:48;2.87;;;1.50;;
34695;SDS011;20918;51.138;17.370;2022-07-24T08:37:50;1.50;;;1.40;;
34695;SDS011;20918;51.138;17.370;2022-07-24T08:40:51;1.82;;;1.62;;
34695;SDS011;20918;51.138;17.370;2022-07-24T08:43:53;5.08;;;1.60;;
34695;SDS011;20918;51.138;17.370;2022-07-24T08:46:54;1.52;;;1.40;;
34695;SDS011;20918;51.138;17.370;2022-07-24T08:49:59;2.80;;;1.70;;
34695;SDS011;20918;51.138;17.370;2022-07-24T08:53:04;4.25;;;1.57;;
34695;SDS011;20918;51.138;17.370;2022-07-24T08:56:06;2.47;;;1.60;;
34695;SDS011;20918;51.138;17.370;2022-07-24T08:59:15;2.67;;;1.62;;
34695;SDS011;20918;51.138;17.370;2022-07-24T09:02:21;3.47;;;1.75;;
34695;SDS011;20918;51.138;17.370;2022-07-24T09:05:23;2.05;;;1.40;;
34695;SDS011;20918;51.138;17.370;2022-07-24T09:08:24;2.80;;;1.62;;
34695;SDS011;20918;51.138;17.370;2022-07-24T09:11:26;4.45;;;1.52;;
34695;SDS011;20918;51.138;17.370;2022-07-24T09:14:30;4.78;;;1.52;;
34695;SDS011;20918;51.138;17.370;2022-07-24T09:17:32;2.62;;;1.60;;
34695;SDS011;20918;51.138;17.370;2022-07-24T09:20:37;3.75;;;1.55;;
34695;SDS011;20918;51.138;17.370;2022-07-24T09:23:39;2.35;;;1.70;;
34695;SDS011;20918;51.138;17.370;2022-07-24T09:29:51;2.27;;;1.30;;
34695;SDS011;20918;51.138;17.370;2022-07-24T09:32:53;5.15;;;2.00;;
34695;SDS011;20918;51.138;17.370;2022-07-24T09:35:59;2.22;;;1.90;;
34695;SDS011;20918;51.138;17.370;2022-07-24T09:39:02;2.08;;;1.52;;
34695;SDS011;20918;51.138;17.370;2022-07-24T09:42:05;3.42;;;1.50;;
34695;SDS011;20918;51.138;17.370;2022-07-24T09:45:11;3.30;;;1.35;;
34695;SDS011;20918;51.138;17.370;2022-07-24T09:48:13;1.30;;;1.20;;
34695;SDS011;20918;51.138;17.370;2022-07-24T09:51:16;1.65;;;1.20;;
34695;SDS011;20918;51.138;17.370;2022-07-24T09:54:27;2.15;;;1.55;;
34695;SDS011;20918;51.138;17.370;2022-07-24T09:57:38;3.50;;;1.57;;
34695;SDS011;20918;51.138;17.370;2022-07-24T10:00:40;1.62;;;1.40;;
34695;SDS011;20918;51.138;17.370;2022-07-24T10:03:45;5.50;;;1.95;;
34695;SDS011;20918;51.138;17.370;2022-07-24T10:06:48;1.80;;;1.70;;
34695;SDS011;20918;51.138;17.370;2022-07-24T10:09:53;3.22;;;1.37;;
34695;SDS011;20918;51.138;17.370;2022-07-24T10:13:00;2.00;;;1.80;;
34695;SDS011;20918;51.138;17.370;2022-07-24T10:19:16;1.72;;;1.60;;
34695;SDS011;20918;51.138;17.370;2022-07-24T10:22:22;6.25;;;1.50;;
34695;SDS011;20918;51.138;17.370;2022-07-24T10:25:24;2.17;;;1.60;;
34695;SDS011;20918;51.138;17.370;2022-07-24T10:28:45;1.50;;;1.30;;
34695;SDS011;20918;51.138;17.370;2022-07-24T10:31:52;3.10;;;1.65;;
34695;SDS011;20918;51.138;17.370;2022-07-24T10:38:16;2.60;;;1.80;;
34695;SDS011;20918;51.138;17.370;2022-07-24T10:41:24;2.08;;;1.22;;
34695;SDS011;20918;51.138;17.370;2022-07-24T10:44:27;2.62;;;1.50;;
34695;SDS011;20918;51.138;17.370;2022-07-24T10:47:28;2.65;;;1.47;;
34695;SDS011;20918;51.138;17.370;2022-07-24T10:54:03;1.40;;;1.30;;
34695;SDS011;20918;51.138;17.370;2022-07-24T10:57:09;2.58;;;1.87;;
34695;SDS011;20918;51.138;17.370;2022-07-24T11:00:24;1.40;;;1.10;;
34695;SDS011;20918;51.138;17.370;2022-07-24T11:03:30;1.10;;;1.00;;
34695;SDS011;20918;51.138;17.370;2022-07-24T11:10:00;4.22;;;1.32;;
34695;SDS011;20918;51.138;17.370;2022-07-24T11:13:38;2.15;;;1.10;;
34695;SDS011;20918;51.138;17.370;2022-07-24T11:16:35;1.30;;;1.10;;
34695;SDS011;20918;51.138;17.370;2022-07-24T11:19:37;2.40;;;1.17;;
34695;SDS011;20918;51.138;17.370;2022-07-24T11:22:43;2.00;;;1.00;;
34695;SDS011;20918;51.138;17.370;2022-07-24T11:29:38;1.30;;;0.90;;
34695;SDS011;20918;51.138;17.370;2022-07-24T11:32:40;1.22;;;1.15;;
34695;SDS011;20918;51.138;17.370;2022-07-24T11:35:43;1.30;;;1.20;;
34695;SDS011;20918;51.138;17.370;2022-07-24T11:38:45;1.55;;;1.12;;
34695;SDS011;20918;51.138;17.370;2022-07-24T11:41:47;2.77;;;0.90;;
34695;SDS011;20918;51.138;17.370;2022-07-24T11:44:57;1.37;;;1.15;;
34695;SDS011;20918;51.138;17.370;2022-07-24T11:47:59;1.30;;;1.10;;
34695;SDS011;20918;51.138;17.370;2022-07-24T11:51:08;2.20;;;1.10;;
34695;SDS011;20918;51.138;17.370;2022-07-24T11:54:07;1.60;;;1.15;;
34695;SDS011;20918;51.138;17.370;2022-07-24T11:57:15;3.08;;;1.00;;
34695;SDS011;20918;51.138;17.370;2022-07-24T12:00:24;3.27;;;1.12;;
34695;SDS011;20918;51.138;17.370;2022-07-24T12:03:28;1.12;;;1.02;;
34695;SDS011;20918;51.138;17.370;2022-07-24T12:06:30;1.17;;;0.93;;
34695;SDS011;20918;51.138;17.370;2022-07-24T12:09:32;6.47;;;1.10;;
34695;SDS011;20918;51.138;17.370;2022-07-24T12:12:35;1.35;;;1.10;;
34695;SDS011;20918;51.138;17.370;2022-07-24T12:15:39;2.05;;;1.10;;
34695;SDS011;20918;51.138;17.370;2022-07-24T12:18:41;1.10;;;1.00;;
34695;SDS011;20918;51.138;17.370;2022-07-24T12:21:43;1.45;;;1.05;;
34695;SDS011;20918;51.138;17.370;2022-07-24T12:24:46;1.42;;;1.05;;
34695;SDS011;20918;51.138;17.370;2022-07-24T12:27:48;2.80;;;1.15;;
34695;SDS011;20918;51.138;17.370;2022-07-24T12:30:54;1.37;;;0.90;;
34695;SDS011;20918;51.138;17.370;2022-07-24T12:33:55;3.85;;;0.90;;
34695;SDS011;20918;51.138;17.370;2022-07-24T12:36:56;1.15;;;1.05;;
34695;SDS011;20918;51.138;17.370;2022-07-24T12:39:57;2.55;;;1.15;;
34695;SDS011;20918;51.138;17.370;2022-07-24T12:43:04;0.88;;;0.88;;
34695;SDS011;20918;51.138;17.370;2022-07-24T12:46:13;2.25;;;1.10;;
34695;SDS011;20918;51.138;17.370;2022-07-24T12:49:20;1.02;;;1.00;;
34695;SDS011;20918;51.138;17.370;2022-07-24T12:52:22;1.25;;;1.10;;
34695;SDS011;20918;51.138;17.370;2022-07-24T12:55:25;0.95;;;0.90;;
34695;SDS011;20918;51.138;17.370;2022-07-24T12:58:27;1.47;;;1.10;;
34695;SDS011;20918;51.138;17.370;2022-07-24T13:01:43;1.52;;;1.20;;
34695;SDS011;20918;51.138;17.370;2022-07-24T13:04:50;1.62;;;1.20;;
34695;SDS011;20918;51.138;17.370;2022-07-24T13:07:55;1.45;;;1.15;;
34695;SDS011;20918;51.138;17.370;2022-07-24T13:10:56;1.50;;;1.22;;
34695;SDS011;20918;51.138;17.370;2022-07-24T13:13:58;2.12;;;1.27;;
34695;SDS011;20918;51.138;17.370;2022-07-24T13:20:11;4.80;;;1.00;;
34695;SDS011;20918;51.138;17.370;2022-07-24T13:23:13;1.10;;;1.00;;
34695;SDS011;20918;51.138;17.370;2022-07-24T13:26:15;1.62;;;0.88;;
34695;SDS011;20918;51.138;17.370;2022-07-24T13:29:17;1.70;;;1.22;;
34695;SDS011;20918;51.138;17.370;2022-07-24T13:32:21;1.70;;;1.32;;
34695;SDS011;20918;51.138;17.370;2022-07-24T13:35:23;2.25;;;0.80;;
34695;SDS011;20918;51.138;17.370;2022-07-24T13:38:25;1.40;;;1.05;;
34695;SDS011;20918;51.138;17.370;2022-07-24T13:41:27;1.47;;;0.82;;
34695;SDS011;20918;51.138;17.370;2022-07-24T13:44:29;1.37;;;1.05;;
34695;SDS011;20918;51.138;17.370;2022-07-24T13:47:30;3.35;;;0.90;;
34695;SDS011;20918;51.138;17.370;2022-07-24T13:50:32;0.93;;;0.93;;
34695;SDS011;20918;51.138;17.370;2022-07-24T13:53:33;1.50;;;1.10;;
34695;SDS011;20918;51.138;17.370;2022-07-24T13:56:36;4.10;;;1.27;;
34695;SDS011;20918;51.138;17.370;2022-07-24T13:59:39;1.07;;;1.00;;
34695;SDS011;20918;51.138;17.370;2022-07-24T14:02:41;0.85;;;0.80;;
34695;SDS011;20918;51.138;17.370;2022-07-24T14:05:42;1.22;;;1.00;;
34695;SDS011;20918;51.138;17.370;2022-07-24T14:08:44;1.82;;;0.98;;
34695;SDS011;20918;51.138;17.370;2022-07-24T14:11:45;3.37;;;1.20;;
34695;SDS011;20918;51.138;17.370;2022-07-24T14:14:46;0.80;;;0.80;;
34695;SDS011;20918;51.138;17.370;2022-07-24T14:17:48;3.33;;;1.25;;
34695;SDS011;20918;51.138;17.370;2022-07-24T14:20:50;2.62;;;1.25;;
34695;SDS011;20918;51.138;17.370;2022-07-24T14:23:51;1.57;;;1.00;;
34695;SDS011;20918;51.138;17.370;2022-07-24T14:26:53;3.62;;;1.75;;
34695;SDS011;20918;51.138;17.370;2022-07-24T14:29:54;1.27;;;1.10;;
34695;SDS011;20918;51.138;17.370;2022-07-24T14:32:56;2.25;;;1.15;;
34695;SDS011;20918;51.138;17.370;2022-07-24T14:35:58;1.22;;;1.00;;
34695;SDS011;20918;51.138;17.370;2022-07-24T14:38:59;1.65;;;1.20;;
34695;SDS011;20918;51.138;17.370;2022-07-24T14:42:00;2.05;;;0.90;;
34695;SDS011;20918;51.138;17.370;2022-07-24T14:45:02;1.15;;;0.88;;
34695;SDS011;20918;51.138;17.370;2022-07-24T14:48:05;1.77;;;0.93;;
34695;SDS011;20918;51.138;17.370;2022-07-24T14:51:06;1.75;;;0.98;;
34695;SDS011;20918;51.138;17.370;2022-07-24T14:54:08;4.08;;;1.05;;
34695;SDS011;20918;51.138;17.370;2022-07-24T14:57:11;1.25;;;0.98;;
34695;SDS011;20918;51.138;17.370;2022-07-24T15:00:13;1.98;;;0.80;;
34695;SDS011;20918;51.138;17.370;2022-07-24T15:03:15;1.15;;;0.90;;
34695;SDS011;20918;51.138;17.370;2022-07-24T15:06:16;1.72;;;1.00;;
34695;SDS011;20918;51.138;17.370;2022-07-24T15:09:19;2.27;;;0.95;;
34695;SDS011;20918;51.138;17.370;2022-07-24T15:12:21;0.93;;;0.88;;
34695;SDS011;20918;51.138;17.370;2022-07-24T15:15:22;2.02;;;1.00;;
34695;SDS011;20918;51.138;17.370;2022-07-24T15:18:24;1.27;;;0.90;;
34695;SDS011;20918;51.138;17.370;2022-07-24T15:21:25;2.12;;;0.80;;
34695;SDS011;20918;51.138;17.370;2022-07-24T15:24:26;1.10;;;1.00;;
34695;SDS011;20918;51.138;17.370;2022-07-24T15:27:28;1.20;;;0.90;;
34695;SDS011;20918;51.138;17.370;2022-07-24T15:30:29;0.90;;;0.90;;
34695;SDS011;20918;51.138;17.370;2022-07-24T15:33:30;2.37;;;0.82;;
34695;SDS011;20918;51.138;17.370;2022-07-24T15:36:32;1.65;;;0.80;;
34695;SDS011;20918;51.138;17.370;2022-07-24T15:39:33;1.22;;;1.10;;
34695;SDS011;20918;51.138;17.370;2022-07-24T15:42:34;1.10;;;1.00;;
34695;SDS011;20918;51.138;17.370;2022-07-24T15:45:36;3.58;;;1.05;;
34695;SDS011;20918;51.138;17.370;2022-07-24T15:48:38;3.33;;;1.17;;
34695;SDS011;20918;51.138;17.370;2022-07-24T15:51:40;3.33;;;1.17;;
34695;SDS011;20918;51.138;17.370;2022-07-24T15:54:41;1.98;;;1.02;;
34695;SDS011;20918;51.138;17.370;2022-07-24T15:57:43;1.40;;;0.80;;
34695;SDS011;20918;51.138;17.370;2022-07-24T16:00:44;0.80;;;0.70;;
34695;SDS011;20918;51.138;17.370;2022-07-24T16:03:45;1.85;;;1.00;;
34695;SDS011;20918;51.138;17.370;2022-07-24T16:06:46;1.25;;;0.90;;
34695;SDS011;20918;51.138;17.370;2022-07-24T16:09:48;1.15;;;1.02;;
34695;SDS011;20918;51.138;17.370;2022-07-24T16:12:51;2.02;;;1.00;;
34695;SDS011;20918;51.138;17.370;2022-07-24T16:15:52;0.90;;;0.90;;
34695;SDS011;20918;51.138;17.370;2022-07-24T16:18:53;1.82;;;1.00;;
34695;SDS011;20918;51.138;17.370;2022-07-24T16:21:55;2.30;;;0.95;;
34695;SDS011;20918;51.138;17.370;2022-07-24T16:24:58;0.98;;;0.80;;
34695;SDS011;20918;51.138;17.370;2022-07-24T16:28:02;2.30;;;1.27;;
34695;SDS011;20918;51.138;17.370;2022-07-24T16:31:04;1.00;;;1.00;;
34695;SDS011;20918;51.138;17.370;2022-07-24T16:34:07;1.27;;;1.17;;
34695;SDS011;20918;51.138;17.370;2022-07-24T16:37:08;1.12;;;1.00;;
34695;SDS011;20918;51.138;17.370;2022-07-24T16:40:09;1.12;;;1.02;;
34695;SDS011;20918;51.138;17.370;2022-07-24T16:43:11;1.25;;;1.07;;
34695;SDS011;20918;51.138;17.370;2022-07-24T16:46:13;5.78;;;1.02;;
34695;SDS011;20918;51.138;17.370;2022-07-24T16:49:14;3.80;;;1.00;;
34695;SDS011;20918;51.138;17.370;2022-07-24T16:52:15;1.77;;;0.82;;
34695;SDS011;20918;51.138;17.370;2022-07-24T16:55:17;1.60;;;1.20;;
34695;SDS011;20918;51.138;17.370;2022-07-24T16:58:18;1.20;;;1.10;;
34695;SDS011;20918;51.138;17.370;2022-07-24T17:01:19;2.45;;;1.15;;
34695;SDS011;20918;51.138;17.370;2022-07-24T17:04:21;1.60;;;1.00;;
34695;SDS011;20918;51.138;17.370;2022-07-24T17:07:22;3.00;;;1.15;;
34695;SDS011;20918;51.138;17.370;2022-07-24T17:10:23;2.90;;;1.20;;
34695;SDS011;20918;51.138;17.370;2022-07-24T17:13:26;1.15;;;1.05;;
34695;SDS011;20918;51.138;17.370;2022-07-24T17:16:27;1.20;;;1.10;;
34695;SDS011;20918;51.138;17.370;2022-07-24T17:19:29;1.30;;;1.20;;
34695;SDS011;20918;51.138;17.370;2022-07-24T17:22:30;4.58;;;1.12;;
34695;SDS011;20918;51.138;17.370;2022-07-24T17:25:32;1.75;;;1.10;;
34695;SDS011;20918;51.138;17.370;2022-07-24T17:28:36;1.30;;;1.20;;
34695;SDS011;20918;51.138;17.370;2022-07-24T17:31:37;1.90;;;1.30;;
34695;SDS011;20918;51.138;17.370;2022-07-24T17:34:39;1.52;;;1.25;;
34695;SDS011;20918;51.138;17.370;2022-07-24T17:37:40;1.50;;;1.10;;
34695;SDS011;20918;51.138;17.370;2022-07-24T17:40:41;3.83;;;1.40;;
34695;SDS011;20918;51.138;17.370;2022-07-24T17:43:43;1.62;;;1.50;;
34695;SDS011;20918;51.138;17.370;2022-07-24T17:46:45;2.15;;;1.12;;
34695;SDS011;20918;51.138;17.370;2022-07-24T17:49:46;3.50;;;1.07;;
34695;SDS011;20918;51.138;17.370;2022-07-24T17:52:47;1.07;;;1.07;;
34695;SDS011;20918;51.138;17.370;2022-07-24T17:55:48;3.10;;;1.25;;
34695;SDS011;20918;51.138;17.370;2022-07-24T17:58:50;2.52;;;1.27;;
34695;SDS011;20918;51.138;17.370;2022-07-24T18:01:51;1.87;;;1.07;;
34695;SDS011;20918;51.138;17.370;2022-07-24T18:04:53;3.58;;;1.50;;
34695;SDS011;20918;51.138;17.370;2022-07-24T18:07:54;1.80;;;1.10;;
34695;SDS011;20918;51.138;17.370;2022-07-24T18:10:56;2.58;;;1.30;;
34695;SDS011;20918;51.138;17.370;2022-07-24T18:13:57;1.80;;;1.20;;
34695;SDS011;20918;51.138;17.370;2022-07-24T18:17:01;1.95;;;1.35;;
34695;SDS011;20918;51.138;17.370;2022-07-24T18:20:03;3.30;;;1.50;;
34695;SDS011;20918;51.138;17.370;2022-07-24T18:23:06;3.17;;;1.57;;